createdAt,value
2017-04-11T00:04:17.825Z,33.8
2017-04-11T00:15:18.285Z,34
2017-04-11T00:26:17.810Z,34.6
2017-04-11T00:37:18.461Z,34.8
2017-04-11T00:48:18.344Z,35
2017-04-11T00:59:17.758Z,35.9
2017-04-11T01:10:18.829Z,35.7
2017-04-11T01:21:17.945Z,33.7
2017-04-11T01:32:17.946Z,33.1
2017-04-11T01:43:18.174Z,32.3
2017-04-11T01:54:17.791Z,32.7
2017-04-11T02:05:18.704Z,31.8
2017-04-11T02:16:17.950Z,31.2
2017-04-11T02:27:17.830Z,30.4
2017-04-11T02:38:20.248Z,29.9
2017-04-11T02:49:18.607Z,30
2017-04-11T03:00:18.846Z,29.2
2017-04-11T03:11:18.642Z,29
2017-04-11T03:22:18.432Z,28
2017-04-11T03:33:18.292Z,28.5
2017-04-11T03:44:18.515Z,31.3
2017-04-11T03:55:18.646Z,32.2
2017-04-11T04:06:18.250Z,32.2
2017-04-11T04:17:18.773Z,32.5
2017-04-11T04:28:18.550Z,33
2017-04-11T04:39:17.690Z,34.1
2017-04-11T04:50:18.539Z,34.6
2017-04-11T05:01:18.718Z,34.8
2017-04-11T05:12:18.106Z,35.3
2017-04-11T05:23:18.222Z,36.3
2017-04-11T05:34:19.193Z,34.4
2017-04-11T05:45:19.128Z,33.7
2017-04-11T05:56:18.912Z,33.6
2017-04-11T06:07:18.281Z,33
2017-04-11T06:18:18.707Z,33
2017-04-11T06:29:17.906Z,32
2017-04-11T06:40:18.260Z,31.5
2017-04-11T06:51:17.644Z,31
2017-04-11T07:02:18.812Z,30.6
2017-04-11T07:13:18.317Z,29.9
2017-04-11T07:24:18.618Z,30.2
2017-04-11T07:35:18.447Z,29.7
2017-04-11T07:46:18.405Z,29.3
2017-04-11T07:57:18.333Z,31.6
2017-04-11T08:08:18.300Z,33.2
2017-04-11T08:19:17.736Z,33.6
2017-04-11T08:30:18.336Z,34.7
2017-04-11T08:41:18.376Z,35.3
2017-04-11T08:52:18.444Z,36
2017-04-11T09:03:18.642Z,37.1
2017-04-11T09:14:18.364Z,37.8
2017-04-11T09:25:18.517Z,38.3
2017-04-11T09:36:18.523Z,37.9
2017-04-11T09:47:18.396Z,36.2
2017-04-11T09:58:18.253Z,36.5
2017-04-11T10:09:19.430Z,36.3
2017-04-11T10:20:18.872Z,35
2017-04-11T10:31:18.114Z,36
2017-04-11T10:42:18.786Z,34.5
2017-04-11T10:53:18.408Z,34.3
2017-04-11T11:04:18.463Z,33.7
2017-04-11T11:15:17.883Z,32.7
2017-04-11T11:26:18.911Z,33.2
2017-04-11T11:37:17.782Z,33
2017-04-11T11:48:18.855Z,32.9
2017-04-11T11:59:17.874Z,35.3
2017-04-11T12:10:18.245Z,34.5
2017-04-11T12:21:18.225Z,35.8
2017-04-11T12:32:18.065Z,35
2017-04-11T12:43:17.863Z,35.7
2017-04-11T12:54:19.183Z,36.6
2017-04-11T13:05:19.468Z,36.4
2017-04-11T13:16:18.340Z,36.9
2017-04-11T13:27:18.299Z,37.3
2017-04-11T13:38:18.188Z,37.4
2017-04-11T13:49:19.575Z,37.7
2017-04-11T14:00:18.702Z,37.9
2017-04-11T14:11:18.511Z,38.1
2017-04-11T14:22:18.730Z,38
2017-04-11T14:33:18.050Z,38.4
2017-04-11T14:44:18.011Z,38.6
2017-04-11T14:55:18.316Z,38.6
2017-04-11T15:06:18.718Z,38.8
2017-04-11T15:17:18.308Z,38.9
2017-04-11T15:28:18.344Z,36.9
2017-04-11T15:39:18.520Z,36.4
2017-04-11T15:50:18.755Z,36.9
2017-04-11T16:01:18.758Z,36.6
2017-04-11T16:12:18.231Z,36
2017-04-11T16:23:18.564Z,34.6
2017-04-11T16:34:17.844Z,34.9
2017-04-11T16:45:18.084Z,34.2
2017-04-11T16:56:18.405Z,33.3
2017-04-11T17:07:19.374Z,33.6
2017-04-11T17:18:17.975Z,33.6
2017-04-11T17:29:17.817Z,32.7
2017-04-11T17:40:18.828Z,32.8
2017-04-11T17:51:18.406Z,35.3
2017-04-11T18:02:18.523Z,35.6
2017-04-11T18:13:18.992Z,35.6
2017-04-11T18:24:18.063Z,35.8
2017-04-11T18:35:18.341Z,36.2
2017-04-11T18:46:18.671Z,36.8
2017-04-11T18:57:17.919Z,37
2017-04-11T19:08:18.183Z,37.3
2017-04-11T19:19:18.054Z,38.1
2017-04-11T19:30:18.565Z,37.7
2017-04-11T19:41:17.994Z,37.9
2017-04-11T19:52:18.461Z,38.1
2017-04-11T20:03:17.369Z,55.6
2017-04-11T20:14:18.050Z,39
2017-04-11T20:25:18.396Z,37.2
2017-04-11T20:36:17.877Z,35.8
2017-04-11T20:47:18.522Z,36
2017-04-11T20:58:18.304Z,34.9
2017-04-11T21:09:18.822Z,34.1
2017-04-11T21:20:18.913Z,34.2
2017-04-11T21:31:19.278Z,33.8
2017-04-11T21:42:19.237Z,33.2
2017-04-11T21:53:18.658Z,32.8
2017-04-11T22:04:18.636Z,32.8
2017-04-11T22:15:18.010Z,31.2
2017-04-11T22:26:17.940Z,31.3
2017-04-11T22:37:18.422Z,30.8
2017-04-11T22:48:18.781Z,34.2
2017-04-11T22:59:19.009Z,34.5
2017-04-11T23:10:18.776Z,34.6
2017-04-11T23:21:17.949Z,34.6
2017-04-11T23:32:18.163Z,35
2017-04-11T23:43:18.032Z,35.6
2017-04-11T23:54:18.105Z,36.6
